sensor_id;sensor_type;location;lat;lon;timestamp;P1;durP1;ratioP1;P2;durP2;ratioP2
33094;SDS011;19459;53.044;8.910;2024-03-25T00:01:35;5.57;;;2.58;;
33094;SDS011;19459;53.044;8.910;2024-03-25T00:04:04;10.02;;;3.05;;
33094;SDS011;19459;53.044;8.910;2024-03-25T00:06:29;7.20;;;2.20;;
33094;SDS011;19459;53.044;8.910;2024-03-25T00:08:58;6.35;;;2.40;;
33094;SDS011;19459;53.044;8.910;2024-03-25T00:11:28;5.45;;;2.10;;
33094;SDS011;19459;53.044;8.910;2024-03-25T00:13:54;5.53;;;2.83;;
33094;SDS011;19459;53.044;8.910;2024-03-25T00:16:20;9.93;;;3.22;;
33094;SDS011;19459;53.044;8.910;2024-03-25T00:18:46;6.05;;;2.22;;
33094;SDS011;19459;53.044;8.910;2024-03-25T00:21:11;4.20;;;1.77;;
33094;SDS011;19459;53.044;8.910;2024-03-25T00:23:37;13.98;;;2.78;;
33094;SDS011;19459;53.044;8.910;2024-03-25T00:26:03;4.07;;;1.92;;
33094;SDS011;19459;53.044;8.910;2024-03-25T00:28:29;10.13;;;2.35;;
33094;SDS011;19459;53.044;8.910;2024-03-25T00:30:55;8.43;;;3.40;;
33094;SDS011;19459;53.044;8.910;2024-03-25T00:33:21;4.35;;;2.60;;
33094;SDS011;19459;53.044;8.910;2024-03-25T00:35:49;6.60;;;2.30;;
33094;SDS011;19459;53.044;8.910;2024-03-25T00:38:15;4.75;;;2.20;;
33094;SDS011;19459;53.044;8.910;2024-03-25T00:40:42;13.05;;;2.67;;
33094;SDS011;19459;53.044;8.910;2024-03-25T00:43:08;5.38;;;2.20;;
33094;SDS011;19459;53.044;8.910;2024-03-25T00:45:34;7.47;;;2.10;;
33094;SDS011;19459;53.044;8.910;2024-03-25T00:47:59;5.40;;;1.52;;
33094;SDS011;19459;53.044;8.910;2024-03-25T00:50:26;7.20;;;2.28;;
33094;SDS011;19459;53.044;8.910;2024-03-25T00:52:52;5.82;;;1.90;;
33094;SDS011;19459;53.044;8.910;2024-03-25T00:55:17;4.57;;;1.95;;
33094;SDS011;19459;53.044;8.910;2024-03-25T00:57:44;7.65;;;2.20;;
33094;SDS011;19459;53.044;8.910;2024-03-25T01:00:10;7.97;;;2.35;;
33094;SDS011;19459;53.044;8.910;2024-03-25T01:02:36;8.45;;;3.38;;
33094;SDS011;19459;53.044;8.910;2024-03-25T01:05:03;7.70;;;2.83;;
33094;SDS011;19459;53.044;8.910;2024-03-25T01:07:31;4.82;;;2.22;;
33094;SDS011;19459;53.044;8.910;2024-03-25T01:09:57;10.13;;;2.40;;
33094;SDS011;19459;53.044;8.910;2024-03-25T01:12:25;8.32;;;2.28;;
33094;SDS011;19459;53.044;8.910;2024-03-25T01:14:51;5.13;;;2.22;;
33094;SDS011;19459;53.044;8.910;2024-03-25T01:17:18;6.15;;;2.10;;
33094;SDS011;19459;53.044;8.910;2024-03-25T01:19:44;7.45;;;2.45;;
33094;SDS011;19459;53.044;8.910;2024-03-25T01:22:11;7.15;;;2.60;;
33094;SDS011;19459;53.044;8.910;2024-03-25T01:24:36;4.28;;;2.30;;
33094;SDS011;19459;53.044;8.910;2024-03-25T01:27:02;10.77;;;2.28;;
33094;SDS011;19459;53.044;8.910;2024-03-25T01:29:30;5.70;;;2.58;;
33094;SDS011;19459;53.044;8.910;2024-03-25T01:31:56;8.48;;;1.95;;
33094;SDS011;19459;53.044;8.910;2024-03-25T01:34:23;6.50;;;2.35;;
33094;SDS011;19459;53.044;8.910;2024-03-25T01:36:50;6.75;;;2.05;;
33094;SDS011;19459;53.044;8.910;2024-03-25T01:39:17;5.95;;;2.40;;
33094;SDS011;19459;53.044;8.910;2024-03-25T01:41:43;14.25;;;3.03;;
33094;SDS011;19459;53.044;8.910;2024-03-25T01:44:10;8.57;;;3.25;;
33094;SDS011;19459;53.044;8.910;2024-03-25T01:46:36;9.90;;;3.65;;
33094;SDS011;19459;53.044;8.910;2024-03-25T01:49:03;9.00;;;2.35;;
33094;SDS011;19459;53.044;8.910;2024-03-25T01:51:30;7.63;;;2.20;;
33094;SDS011;19459;53.044;8.910;2024-03-25T01:53:57;4.90;;;2.70;;
33094;SDS011;19459;53.044;8.910;2024-03-25T01:56:25;7.03;;;2.53;;
33094;SDS011;19459;53.044;8.910;2024-03-25T01:58:52;8.55;;;2.50;;
33094;SDS011;19459;53.044;8.910;2024-03-25T02:01:18;9.18;;;2.65;;
33094;SDS011;19459;53.044;8.910;2024-03-25T02:03:45;12.35;;;2.85;;
33094;SDS011;19459;53.044;8.910;2024-03-25T02:06:18;8.80;;;2.50;;
33094;SDS011;19459;53.044;8.910;2024-03-25T02:08:45;13.90;;;3.42;;
33094;SDS011;19459;53.044;8.910;2024-03-25T02:11:12;7.80;;;2.35;;
33094;SDS011;19459;53.044;8.910;2024-03-25T02:13:39;9.02;;;2.97;;
33094;SDS011;19459;53.044;8.910;2024-03-25T02:16:05;9.45;;;2.70;;
33094;SDS011;19459;53.044;8.910;2024-03-25T02:18:31;13.90;;;3.30;;
33094;SDS011;19459;53.044;8.910;2024-03-25T02:20:58;10.48;;;2.95;;
33094;SDS011;19459;53.044;8.910;2024-03-25T02:23:24;11.40;;;2.80;;
33094;SDS011;19459;53.044;8.910;2024-03-25T02:25:52;6.30;;;2.65;;
33094;SDS011;19459;53.044;8.910;2024-03-25T02:28:19;9.90;;;3.05;;
33094;SDS011;19459;53.044;8.910;2024-03-25T02:30:45;13.75;;;3.42;;
33094;SDS011;19459;53.044;8.910;2024-03-25T02:33:12;8.02;;;2.70;;
33094;SDS011;19459;53.044;8.910;2024-03-25T02:35:39;6.80;;;2.80;;
33094;SDS011;19459;53.044;8.910;2024-03-25T02:38:07;14.65;;;2.80;;
33094;SDS011;19459;53.044;8.910;2024-03-25T02:40:34;8.60;;;2.80;;
33094;SDS011;19459;53.044;8.910;2024-03-25T02:43:01;12.38;;;3.10;;
33094;SDS011;19459;53.044;8.910;2024-03-25T02:45:27;13.05;;;3.42;;
33094;SDS011;19459;53.044;8.910;2024-03-25T02:47:53;10.95;;;2.42;;
33094;SDS011;19459;53.044;8.910;2024-03-25T02:50:20;8.48;;;3.15;;
33094;SDS011;19459;53.044;8.910;2024-03-25T02:52:45;16.27;;;3.80;;
33094;SDS011;19459;53.044;8.910;2024-03-25T02:55:11;22.08;;;3.20;;
33094;SDS011;19459;53.044;8.910;2024-03-25T02:57:38;9.38;;;2.90;;
33094;SDS011;19459;53.044;8.910;2024-03-25T03:00:04;11.82;;;2.78;;
33094;SDS011;19459;53.044;8.910;2024-03-25T03:02:34;12.60;;;3.10;;
33094;SDS011;19459;53.044;8.910;2024-03-25T03:05:00;6.68;;;2.83;;
33094;SDS011;19459;53.044;8.910;2024-03-25T03:07:27;10.70;;;3.22;;
33094;SDS011;19459;53.044;8.910;2024-03-25T03:09:53;9.48;;;3.10;;
33094;SDS011;19459;53.044;8.910;2024-03-25T03:12:19;7.53;;;3.15;;
33094;SDS011;19459;53.044;8.910;2024-03-25T03:14:45;10.85;;;2.72;;
33094;SDS011;19459;53.044;8.910;2024-03-25T03:17:11;13.55;;;3.33;;
33094;SDS011;19459;53.044;8.910;2024-03-25T03:19:37;7.70;;;2.90;;
33094;SDS011;19459;53.044;8.910;2024-03-25T03:22:04;11.90;;;3.08;;
33094;SDS011;19459;53.044;8.910;2024-03-25T03:24:29;10.50;;;3.47;;
33094;SDS011;19459;53.044;8.910;2024-03-25T03:26:55;13.27;;;3.03;;
33094;SDS011;19459;53.044;8.910;2024-03-25T03:29:21;10.38;;;3.30;;
33094;SDS011;19459;53.044;8.910;2024-03-25T03:31:47;10.57;;;3.45;;
33094;SDS011;19459;53.044;8.910;2024-03-25T03:34:12;10.63;;;3.63;;
33094;SDS011;19459;53.044;8.910;2024-03-25T03:36:38;7.43;;;2.95;;
33094;SDS011;19459;53.044;8.910;2024-03-25T03:39:05;19.05;;;4.15;;
33094;SDS011;19459;53.044;8.910;2024-03-25T03:41:34;7.57;;;3.45;;
33094;SDS011;19459;53.044;8.910;2024-03-25T03:44:00;11.50;;;2.88;;
33094;SDS011;19459;53.044;8.910;2024-03-25T03:46:25;8.80;;;4.35;;
33094;SDS011;19459;53.044;8.910;2024-03-25T03:48:51;15.68;;;4.38;;
33094;SDS011;19459;53.044;8.910;2024-03-25T03:51:17;10.82;;;3.60;;
33094;SDS011;19459;53.044;8.910;2024-03-25T03:53:43;9.23;;;3.08;;
33094;SDS011;19459;53.044;8.910;2024-03-25T03:56:08;7.22;;;2.85;;
33094;SDS011;19459;53.044;8.910;2024-03-25T03:58:34;8.80;;;2.92;;
33094;SDS011;19459;53.044;8.910;2024-03-25T04:01:00;9.48;;;3.90;;
33094;SDS011;19459;53.044;8.910;2024-03-25T04:03:26;12.30;;;3.35;;
33094;SDS011;19459;53.044;8.910;2024-03-25T04:05:52;17.25;;;4.00;;
33094;SDS011;19459;53.044;8.910;2024-03-25T04:08:18;12.52;;;3.88;;
33094;SDS011;19459;53.044;8.910;2024-03-25T04:10:44;10.00;;;3.47;;
33094;SDS011;19459;53.044;8.910;2024-03-25T04:13:11;10.68;;;3.50;;
33094;SDS011;19459;53.044;8.910;2024-03-25T04:15:38;15.57;;;4.30;;
33094;SDS011;19459;53.044;8.910;2024-03-25T04:18:05;15.88;;;4.70;;
33094;SDS011;19459;53.044;8.910;2024-03-25T04:20:36;8.65;;;3.67;;
33094;SDS011;19459;53.044;8.910;2024-03-25T04:23:03;16.92;;;4.30;;
33094;SDS011;19459;53.044;8.910;2024-03-25T04:25:32;13.57;;;4.75;;
33094;SDS011;19459;53.044;8.910;2024-03-25T04:27:59;12.68;;;4.53;;
33094;SDS011;19459;53.044;8.910;2024-03-25T04:30:25;14.23;;;6.28;;
33094;SDS011;19459;53.044;8.910;2024-03-25T04:32:51;21.98;;;5.10;;
33094;SDS011;19459;53.044;8.910;2024-03-25T04:35:17;19.85;;;5.38;;
33094;SDS011;19459;53.044;8.910;2024-03-25T04:37:43;23.40;;;4.65;;
33094;SDS011;19459;53.044;8.910;2024-03-25T04:40:09;19.17;;;5.03;;
33094;SDS011;19459;53.044;8.910;2024-03-25T04:42:39;15.55;;;4.68;;
33094;SDS011;19459;53.044;8.910;2024-03-25T04:45:06;16.13;;;5.43;;
33094;SDS011;19459;53.044;8.910;2024-03-25T04:47:32;28.05;;;5.35;;
33094;SDS011;19459;53.044;8.910;2024-03-25T04:49:58;27.88;;;4.97;;
33094;SDS011;19459;53.044;8.910;2024-03-25T04:52:24;14.57;;;5.90;;
33094;SDS011;19459;53.044;8.910;2024-03-25T04:54:50;27.25;;;5.55;;
33094;SDS011;19459;53.044;8.910;2024-03-25T04:57:17;14.75;;;4.43;;
33094;SDS011;19459;53.044;8.910;2024-03-25T04:59:42;17.20;;;4.05;;
33094;SDS011;19459;53.044;8.910;2024-03-25T05:02:08;17.75;;;5.18;;
33094;SDS011;19459;53.044;8.910;2024-03-25T05:04:34;20.92;;;4.40;;
33094;SDS011;19459;53.044;8.910;2024-03-25T05:07:00;18.10;;;4.40;;
33094;SDS011;19459;53.044;8.910;2024-03-25T05:09:26;21.00;;;4.68;;
33094;SDS011;19459;53.044;8.910;2024-03-25T05:11:52;25.30;;;5.93;;
33094;SDS011;19459;53.044;8.910;2024-03-25T05:14:18;22.67;;;5.03;;
33094;SDS011;19459;53.044;8.910;2024-03-25T05:16:43;11.55;;;4.38;;
33094;SDS011;19459;53.044;8.910;2024-03-25T05:19:09;20.08;;;5.50;;
33094;SDS011;19459;53.044;8.910;2024-03-25T05:21:35;24.80;;;5.32;;
33094;SDS011;19459;53.044;8.910;2024-03-25T05:24:00;14.18;;;4.60;;
33094;SDS011;19459;53.044;8.910;2024-03-25T05:26:26;18.50;;;4.60;;
33094;SDS011;19459;53.044;8.910;2024-03-25T05:28:56;18.23;;;5.13;;
33094;SDS011;19459;53.044;8.910;2024-03-25T05:31:22;24.40;;;4.30;;
33094;SDS011;19459;53.044;8.910;2024-03-25T05:33:48;16.27;;;4.80;;
33094;SDS011;19459;53.044;8.910;2024-03-25T05:36:14;13.10;;;4.15;;
33094;SDS011;19459;53.044;8.910;2024-03-25T05:38:40;14.63;;;3.97;;
33094;SDS011;19459;53.044;8.910;2024-03-25T05:41:07;17.02;;;4.75;;
33094;SDS011;19459;53.044;8.910;2024-03-25T05:43:36;18.23;;;5.10;;
33094;SDS011;19459;53.044;8.910;2024-03-25T05:46:03;14.93;;;4.20;;
33094;SDS011;19459;53.044;8.910;2024-03-25T05:48:29;11.68;;;4.28;;
33094;SDS011;19459;53.044;8.910;2024-03-25T05:53:28;21.02;;;4.80;;
33094;SDS011;19459;53.044;8.910;2024-03-25T05:55:54;15.55;;;4.07;;
33094;SDS011;19459;53.044;8.910;2024-03-25T05:58:21;19.77;;;4.15;;
33094;SDS011;19459;53.044;8.910;2024-03-25T06:00:50;14.20;;;4.00;;
33094;SDS011;19459;53.044;8.910;2024-03-25T06:03:18;26.70;;;4.93;;
33094;SDS011;19459;53.044;8.910;2024-03-25T06:05:44;18.08;;;4.38;;
33094;SDS011;19459;53.044;8.910;2024-03-25T06:08:10;18.17;;;5.30;;
33094;SDS011;19459;53.044;8.910;2024-03-25T06:10:51;16.63;;;4.65;;
33094;SDS011;19459;53.044;8.910;2024-03-25T06:13:19;18.67;;;4.55;;
33094;SDS011;19459;53.044;8.910;2024-03-25T06:15:45;18.33;;;4.55;;
33094;SDS011;19459;53.044;8.910;2024-03-25T06:18:11;26.77;;;5.00;;
33094;SDS011;19459;53.044;8.910;2024-03-25T06:20:38;17.40;;;4.07;;
33094;SDS011;19459;53.044;8.910;2024-03-25T06:23:04;20.63;;;5.07;;
33094;SDS011;19459;53.044;8.910;2024-03-25T06:25:31;22.23;;;4.65;;
33094;SDS011;19459;53.044;8.910;2024-03-25T06:27:58;25.38;;;5.03;;
33094;SDS011;19459;53.044;8.910;2024-03-25T06:30:24;16.90;;;4.70;;
33094;SDS011;19459;53.044;8.910;2024-03-25T06:33:08;18.50;;;4.40;;
33094;SDS011;19459;53.044;8.910;2024-03-25T06:38:18;14.93;;;4.05;;
33094;SDS011;19459;53.044;8.910;2024-03-25T06:40:45;23.70;;;5.63;;
33094;SDS011;19459;53.044;8.910;2024-03-25T06:43:11;25.98;;;5.45;;
33094;SDS011;19459;53.044;8.910;2024-03-25T06:45:37;23.15;;;4.60;;
33094;SDS011;19459;53.044;8.910;2024-03-25T06:48:03;21.55;;;4.35;;
33094;SDS011;19459;53.044;8.910;2024-03-25T06:50:29;18.33;;;5.03;;
33094;SDS011;19459;53.044;8.910;2024-03-25T06:52:55;30.83;;;4.72;;
33094;SDS011;19459;53.044;8.910;2024-03-25T06:55:21;17.42;;;3.80;;
33094;SDS011;19459;53.044;8.910;2024-03-25T06:57:50;19.73;;;4.50;;
33094;SDS011;19459;53.044;8.910;2024-03-25T07:00:15;26.30;;;4.45;;
33094;SDS011;19459;53.044;8.910;2024-03-25T07:02:42;20.77;;;5.55;;
33094;SDS011;19459;53.044;8.910;2024-03-25T07:05:07;16.05;;;4.97;;
33094;SDS011;19459;53.044;8.910;2024-03-25T07:07:33;21.77;;;4.95;;
33094;SDS011;19459;53.044;8.910;2024-03-25T07:10:00;21.15;;;5.07;;
33094;SDS011;19459;53.044;8.910;2024-03-25T07:12:26;18.98;;;6.20;;
33094;SDS011;19459;53.044;8.910;2024-03-25T07:14:52;14.82;;;4.78;;
33094;SDS011;19459;53.044;8.910;2024-03-25T07:17:18;18.15;;;4.07;;
33094;SDS011;19459;53.044;8.910;2024-03-25T07:19:43;27.35;;;4.93;;
33094;SDS011;19459;53.044;8.910;2024-03-25T07:22:10;22.17;;;5.60;;
33094;SDS011;19459;53.044;8.910;2024-03-25T07:24:36;28.13;;;4.22;;
33094;SDS011;19459;53.044;8.910;2024-03-25T07:27:01;23.13;;;4.82;;
33094;SDS011;19459;53.044;8.910;2024-03-25T07:29:27;19.73;;;3.67;;
33094;SDS011;19459;53.044;8.910;2024-03-25T07:31:53;17.23;;;4.10;;
33094;SDS011;19459;53.044;8.910;2024-03-25T07:34:19;25.42;;;5.57;;
33094;SDS011;19459;53.044;8.910;2024-03-25T07:36:45;24.25;;;5.28;;
33094;SDS011;19459;53.044;8.910;2024-03-25T07:39:11;26.98;;;4.32;;
33094;SDS011;19459;53.044;8.910;2024-03-25T07:41:37;15.95;;;4.85;;
33094;SDS011;19459;53.044;8.910;2024-03-25T07:44:03;29.75;;;5.55;;
33094;SDS011;19459;53.044;8.910;2024-03-25T07:46:29;21.30;;;4.65;;
33094;SDS011;19459;53.044;8.910;2024-03-25T07:48:55;14.32;;;3.78;;
33094;SDS011;19459;53.044;8.910;2024-03-25T07:51:21;22.85;;;4.18;;
33094;SDS011;19459;53.044;8.910;2024-03-25T07:53:47;12.88;;;4.50;;
33094;SDS011;19459;53.044;8.910;2024-03-25T07:56:14;21.08;;;3.63;;
33094;SDS011;19459;53.044;8.910;2024-03-25T07:58:41;18.10;;;4.68;;
33094;SDS011;19459;53.044;8.910;2024-03-25T08:01:07;14.65;;;3.72;;
33094;SDS011;19459;53.044;8.910;2024-03-25T08:03:32;10.75;;;3.20;;
33094;SDS011;19459;53.044;8.910;2024-03-25T08:05:58;21.33;;;3.45;;
33094;SDS011;19459;53.044;8.910;2024-03-25T08:08:25;14.88;;;3.30;;
33094;SDS011;19459;53.044;8.910;2024-03-25T08:10:51;19.98;;;3.97;;
33094;SDS011;19459;53.044;8.910;2024-03-25T08:13:21;16.02;;;3.92;;
33094;SDS011;19459;53.044;8.910;2024-03-25T08:15:46;19.15;;;4.00;;
33094;SDS011;19459;53.044;8.910;2024-03-25T08:18:15;14.32;;;3.53;;
33094;SDS011;19459;53.044;8.910;2024-03-25T08:20:41;18.52;;;3.78;;
33094;SDS011;19459;53.044;8.910;2024-03-25T08:23:06;20.13;;;4.40;;
33094;SDS011;19459;53.044;8.910;2024-03-25T08:25:32;18.10;;;4.10;;
33094;SDS011;19459;53.044;8.910;2024-03-25T08:28:01;11.25;;;2.97;;
33094;SDS011;19459;53.044;8.910;2024-03-25T08:30:30;22.08;;;3.45;;
33094;SDS011;19459;53.044;8.910;2024-03-25T08:32:55;19.23;;;3.47;;
33094;SDS011;19459;53.044;8.910;2024-03-25T08:35:21;23.10;;;3.60;;
33094;SDS011;19459;53.044;8.910;2024-03-25T08:37:47;18.70;;;3.83;;
33094;SDS011;19459;53.044;8.910;2024-03-25T08:40:15;17.02;;;4.43;;
33094;SDS011;19459;53.044;8.910;2024-03-25T08:42:41;16.23;;;2.97;;
33094;SDS011;19459;53.044;8.910;2024-03-25T08:45:07;18.92;;;4.60;;
33094;SDS011;19459;53.044;8.910;2024-03-25T08:47:33;24.98;;;3.30;;
33094;SDS011;19459;53.044;8.910;2024-03-25T08:49:59;17.42;;;3.80;;
33094;SDS011;19459;53.044;8.910;2024-03-25T08:52:24;18.35;;;3.22;;
33094;SDS011;19459;53.044;8.910;2024-03-25T08:54:50;17.52;;;4.05;;
33094;SDS011;19459;53.044;8.910;2024-03-25T08:57:16;21.27;;;3.17;;
33094;SDS011;19459;53.044;8.910;2024-03-25T08:59:41;26.25;;;4.45;;
33094;SDS011;19459;53.044;8.910;2024-03-25T09:02:07;21.80;;;4.00;;
33094;SDS011;19459;53.044;8.910;2024-03-25T09:04:33;22.23;;;3.50;;
33094;SDS011;19459;53.044;8.910;2024-03-25T09:06:59;19.33;;;3.08;;
33094;SDS011;19459;53.044;8.910;2024-03-25T09:09:25;15.52;;;3.63;;
33094;SDS011;19459;53.044;8.910;2024-03-25T09:12:09;17.85;;;2.75;;
33094;SDS011;19459;53.044;8.910;2024-03-25T09:14:36;12.60;;;2.42;;
33094;SDS011;19459;53.044;8.910;2024-03-25T09:17:03;11.02;;;3.10;;
33094;SDS011;19459;53.044;8.910;2024-03-25T09:19:29;13.40;;;2.25;;
33094;SDS011;19459;53.044;8.910;2024-03-25T09:21:55;11.07;;;2.85;;
33094;SDS011;19459;53.044;8.910;2024-03-25T09:24:21;17.00;;;3.33;;
33094;SDS011;19459;53.044;8.910;2024-03-25T09:26:49;17.23;;;3.13;;
33094;SDS011;19459;53.044;8.910;2024-03-25T09:29:15;11.90;;;2.80;;
33094;SDS011;19459;53.044;8.910;2024-03-25T09:31:41;12.93;;;3.10;;
33094;SDS011;19459;53.044;8.910;2024-03-25T09:34:07;12.77;;;2.58;;
33094;SDS011;19459;53.044;8.910;2024-03-25T09:36:33;17.40;;;2.42;;
33094;SDS011;19459;53.044;8.910;2024-03-25T09:38:59;14.18;;;2.40;;
33094;SDS011;19459;53.044;8.910;2024-03-25T09:41:25;18.30;;;3.85;;
33094;SDS011;19459;53.044;8.910;2024-03-25T09:43:54;12.43;;;2.92;;
33094;SDS011;19459;53.044;8.910;2024-03-25T09:46:22;22.00;;;3.22;;
33094;SDS011;19459;53.044;8.910;2024-03-25T09:48:52;9.70;;;2.10;;
33094;SDS011;19459;53.044;8.910;2024-03-25T09:51:19;8.05;;;2.58;;
33094;SDS011;19459;53.044;8.910;2024-03-25T09:53:45;15.13;;;2.75;;
33094;SDS011;19459;53.044;8.910;2024-03-25T09:56:12;11.95;;;2.30;;
33094;SDS011;19459;53.044;8.910;2024-03-25T09:58:39;9.13;;;1.65;;
33094;SDS011;19459;53.044;8.910;2024-03-25T10:01:05;7.65;;;1.83;;
33094;SDS011;19459;53.044;8.910;2024-03-25T10:03:32;18.83;;;2.45;;
33094;SDS011;19459;53.044;8.910;2024-03-25T10:05:57;9.75;;;2.30;;
33094;SDS011;19459;53.044;8.910;2024-03-25T10:08:23;11.25;;;2.38;;
33094;SDS011;19459;53.044;8.910;2024-03-25T10:10:55;13.63;;;2.92;;
33094;SDS011;19459;53.044;8.910;2024-03-25T10:13:21;10.77;;;2.20;;
33094;SDS011;19459;53.044;8.910;2024-03-25T10:15:51;16.00;;;2.80;;
33094;SDS011;19459;53.044;8.910;2024-03-25T10:18:16;14.63;;;2.05;;
33094;SDS011;19459;53.044;8.910;2024-03-25T10:20:49;11.50;;;2.67;;
33094;SDS011;19459;53.044;8.910;2024-03-25T10:23:25;11.85;;;2.15;;
33094;SDS011;19459;53.044;8.910;2024-03-25T10:25:54;14.95;;;3.28;;
33094;SDS011;19459;53.044;8.910;2024-03-25T10:28:20;15.00;;;2.58;;
33094;SDS011;19459;53.044;8.910;2024-03-25T10:30:46;15.88;;;2.65;;
33094;SDS011;19459;53.044;8.910;2024-03-25T10:33:12;10.05;;;2.25;;
33094;SDS011;19459;53.044;8.910;2024-03-25T10:35:39;16.67;;;2.83;;
33094;SDS011;19459;53.044;8.910;2024-03-25T10:38:06;10.13;;;2.95;;
33094;SDS011;19459;53.044;8.910;2024-03-25T10:40:38;14.82;;;2.97;;
33094;SDS011;19459;53.044;8.910;2024-03-25T10:43:08;15.85;;;2.40;;
33094;SDS011;19459;53.044;8.910;2024-03-25T10:48:15;12.85;;;1.92;;
33094;SDS011;19459;53.044;8.910;2024-03-25T10:50:46;14.13;;;2.55;;
33094;SDS011;19459;53.044;8.910;2024-03-25T10:53:14;15.60;;;2.05;;
33094;SDS011;19459;53.044;8.910;2024-03-25T10:55:47;11.15;;;2.53;;
33094;SDS011;19459;53.044;8.910;2024-03-25T10:58:13;12.27;;;1.92;;
33094;SDS011;19459;53.044;8.910;2024-03-25T11:00:41;13.32;;;2.45;;
33094;SDS011;19459;53.044;8.910;2024-03-25T11:03:09;12.75;;;3.17;;
33094;SDS011;19459;53.044;8.910;2024-03-25T11:05:36;9.77;;;2.30;;
33094;SDS011;19459;53.044;8.910;2024-03-25T11:08:15;13.18;;;2.53;;
33094;SDS011;19459;53.044;8.910;2024-03-25T11:10:46;18.55;;;2.53;;
33094;SDS011;19459;53.044;8.910;2024-03-25T11:13:13;13.25;;;2.35;;
33094;SDS011;19459;53.044;8.910;2024-03-25T11:15:40;9.80;;;2.58;;
33094;SDS011;19459;53.044;8.910;2024-03-25T11:18:10;15.57;;;2.70;;
33094;SDS011;19459;53.044;8.910;2024-03-25T11:21:02;11.68;;;1.80;;
33094;SDS011;19459;53.044;8.910;2024-03-25T11:24:05;8.68;;;3.05;;
33094;SDS011;19459;53.044;8.910;2024-03-25T11:26:31;10.35;;;2.53;;
33094;SDS011;19459;53.044;8.910;2024-03-25T11:29:00;10.43;;;2.50;;
33094;SDS011;19459;53.044;8.910;2024-03-25T11:31:26;18.50;;;3.15;;
33094;SDS011;19459;53.044;8.910;2024-03-25T11:33:55;8.75;;;1.70;;
33094;SDS011;19459;53.044;8.910;2024-03-25T11:36:22;11.38;;;2.25;;
33094;SDS011;19459;53.044;8.910;2024-03-25T11:38:57;20.05;;;2.97;;
33094;SDS011;19459;53.044;8.910;2024-03-25T11:41:29;13.35;;;3.90;;
33094;SDS011;19459;53.044;8.910;2024-03-25T11:44:01;8.02;;;3.05;;
33094;SDS011;19459;53.044;8.910;2024-03-25T11:46:27;10.93;;;2.70;;
33094;SDS011;19459;53.044;8.910;2024-03-25T11:48:53;12.73;;;2.63;;
33094;SDS011;19459;53.044;8.910;2024-03-25T11:51:19;8.85;;;2.20;;
33094;SDS011;19459;53.044;8.910;2024-03-25T11:53:45;10.05;;;2.00;;
33094;SDS011;19459;53.044;8.910;2024-03-25T11:56:11;7.70;;;2.55;;
33094;SDS011;19459;53.044;8.910;2024-03-25T11:58:37;7.65;;;2.03;;
33094;SDS011;19459;53.044;8.910;2024-03-25T12:01:03;13.85;;;2.30;;
33094;SDS011;19459;53.044;8.910;2024-03-25T12:03:30;7.57;;;1.90;;
33094;SDS011;19459;53.044;8.910;2024-03-25T12:05:56;12.95;;;2.63;;
33094;SDS011;19459;53.044;8.910;2024-03-25T12:08:22;11.88;;;2.35;;
33094;SDS011;19459;53.044;8.910;2024-03-25T12:10:52;11.35;;;2.35;;
33094;SDS011;19459;53.044;8.910;2024-03-25T12:13:38;8.40;;;2.00;;
33094;SDS011;19459;53.044;8.910;2024-03-25T12:16:07;5.85;;;2.05;;
33094;SDS011;19459;53.044;8.910;2024-03-25T12:18:36;7.22;;;1.77;;
33094;SDS011;19459;53.044;8.910;2024-03-25T12:21:06;7.82;;;1.55;;
33094;SDS011;19459;53.044;8.910;2024-03-25T12:23:32;10.20;;;1.77;;
33094;SDS011;19459;53.044;8.910;2024-03-25T12:26:02;12.10;;;1.63;;
33094;SDS011;19459;53.044;8.910;2024-03-25T12:28:31;9.00;;;1.75;;
33094;SDS011;19459;53.044;8.910;2024-03-25T12:31:00;8.40;;;2.50;;
33094;SDS011;19459;53.044;8.910;2024-03-25T12:33:26;12.65;;;1.98;;
33094;SDS011;19459;53.044;8.910;2024-03-25T12:35:52;5.63;;;1.60;;
33094;SDS011;19459;53.044;8.910;2024-03-25T12:38:22;8.13;;;2.35;;
33094;SDS011;19459;53.044;8.910;2024-03-25T12:40:51;6.05;;;2.35;;
33094;SDS011;19459;53.044;8.910;2024-03-25T12:43:19;8.15;;;2.15;;
33094;SDS011;19459;53.044;8.910;2024-03-25T12:45:45;9.27;;;2.58;;
33094;SDS011;19459;53.044;8.910;2024-03-25T12:48:11;9.13;;;2.00;;
33094;SDS011;19459;53.044;8.910;2024-03-25T12:50:37;9.35;;;2.03;;
33094;SDS011;19459;53.044;8.910;2024-03-25T12:53:03;9.32;;;2.60;;
33094;SDS011;19459;53.044;8.910;2024-03-25T12:55:29;11.23;;;2.30;;
33094;SDS011;19459;53.044;8.910;2024-03-25T12:57:55;14.18;;;3.05;;
33094;SDS011;19459;53.044;8.910;2024-03-25T13:00:21;11.15;;;2.33;;
33094;SDS011;19459;53.044;8.910;2024-03-25T13:02:49;6.35;;;2.38;;
33094;SDS011;19459;53.044;8.910;2024-03-25T13:05:15;6.82;;;2.70;;
33094;SDS011;19459;53.044;8.910;2024-03-25T13:07:41;14.50;;;2.75;;
33094;SDS011;19459;53.044;8.910;2024-03-25T13:10:07;10.00;;;2.92;;
33094;SDS011;19459;53.044;8.910;2024-03-25T13:12:34;8.48;;;2.63;;
33094;SDS011;19459;53.044;8.910;2024-03-25T13:15:00;10.95;;;3.17;;
33094;SDS011;19459;53.044;8.910;2024-03-25T13:17:25;11.60;;;2.88;;
33094;SDS011;19459;53.044;8.910;2024-03-25T13:19:51;6.53;;;2.20;;
33094;SDS011;19459;53.044;8.910;2024-03-25T13:22:17;6.80;;;2.08;;
33094;SDS011;19459;53.044;8.910;2024-03-25T13:24:43;12.90;;;2.78;;
33094;SDS011;19459;53.044;8.910;2024-03-25T13:27:08;10.85;;;2.53;;
33094;SDS011;19459;53.044;8.910;2024-03-25T13:29:34;5.75;;;2.42;;
33094;SDS011;19459;53.044;8.910;2024-03-25T13:32:02;10.00;;;2.80;;
33094;SDS011;19459;53.044;8.910;2024-03-25T13:34:28;16.70;;;4.13;;
33094;SDS011;19459;53.044;8.910;2024-03-25T13:36:54;12.60;;;3.20;;
33094;SDS011;19459;53.044;8.910;2024-03-25T13:39:20;8.13;;;2.33;;
33094;SDS011;19459;53.044;8.910;2024-03-25T13:41:46;8.95;;;2.20;;
33094;SDS011;19459;53.044;8.910;2024-03-25T13:44:12;8.40;;;2.58;;
33094;SDS011;19459;53.044;8.910;2024-03-25T13:46:37;7.90;;;1.75;;
33094;SDS011;19459;53.044;8.910;2024-03-25T13:49:03;9.13;;;1.95;;
33094;SDS011;19459;53.044;8.910;2024-03-25T13:51:29;10.35;;;2.28;;
33094;SDS011;19459;53.044;8.910;2024-03-25T13:53:55;9.57;;;2.33;;
33094;SDS011;19459;53.044;8.910;2024-03-25T13:56:21;8.13;;;2.05;;
33094;SDS011;19459;53.044;8.910;2024-03-25T13:58:46;6.95;;;1.52;;
33094;SDS011;19459;53.044;8.910;2024-03-25T14:01:12;7.57;;;3.05;;
33094;SDS011;19459;53.044;8.910;2024-03-25T14:03:38;9.40;;;2.42;;
33094;SDS011;19459;53.044;8.910;2024-03-25T14:06:04;10.98;;;2.40;;
33094;SDS011;19459;53.044;8.910;2024-03-25T14:08:29;11.50;;;2.70;;
33094;SDS011;19459;53.044;8.910;2024-03-25T14:10:58;7.10;;;2.50;;
33094;SDS011;19459;53.044;8.910;2024-03-25T14:13:26;8.25;;;2.42;;
33094;SDS011;19459;53.044;8.910;2024-03-25T14:15:53;8.10;;;1.73;;
33094;SDS011;19459;53.044;8.910;2024-03-25T14:18:19;9.07;;;2.25;;
33094;SDS011;19459;53.044;8.910;2024-03-25T14:20:45;8.32;;;2.15;;
33094;SDS011;19459;53.044;8.910;2024-03-25T14:23:11;3.88;;;1.80;;
33094;SDS011;19459;53.044;8.910;2024-03-25T14:25:37;13.10;;;2.78;;
33094;SDS011;19459;53.044;8.910;2024-03-25T14:28:03;9.10;;;2.20;;
33094;SDS011;19459;53.044;8.910;2024-03-25T14:30:29;6.90;;;1.98;;
33094;SDS011;19459;53.044;8.910;2024-03-25T14:32:55;7.20;;;1.83;;
33094;SDS011;19459;53.044;8.910;2024-03-25T14:35:21;10.23;;;1.90;;
33094;SDS011;19459;53.044;8.910;2024-03-25T14:37:47;7.75;;;1.88;;
33094;SDS011;19459;53.044;8.910;2024-03-25T14:40:14;5.95;;;1.90;;
33094;SDS011;19459;53.044;8.910;2024-03-25T14:42:42;7.53;;;1.60;;
33094;SDS011;19459;53.044;8.910;2024-03-25T14:45:11;8.38;;;1.98;;